createdAt,value
2023-03-02T06:03:02.376Z,15.43
2023-03-02T06:05:29.041Z,13.30
2023-03-02T06:07:57.190Z,11.68
2023-03-02T06:10:27.016Z,16.63
2023-03-02T06:12:53.846Z,14.40
2023-03-02T06:15:21.016Z,15.68
2023-03-02T06:17:47.611Z,14.20
2023-03-02T06:20:15.613Z,10.93
2023-03-02T06:22:47.679Z,12.07
2023-03-02T06:25:19.042Z,13.77
2023-03-02T06:27:46.186Z,11.27
2023-03-02T06:30:18.057Z,14.32
2023-03-02T06:32:46.345Z,12.75
2023-03-02T06:35:13.502Z,13.93
2023-03-02T06:37:43.735Z,12.48
2023-03-02T06:40:12.040Z,12.80
2023-03-02T06:42:40.263Z,12.90
2023-03-02T06:45:07.790Z,11.20
2023-03-02T06:47:34.908Z,18.83
2023-03-02T06:50:01.499Z,15.50
2023-03-02T06:52:28.639Z,17.17
2023-03-02T06:54:55.891Z,14.32
2023-03-02T06:57:22.721Z,18.73
2023-03-02T06:59:50.049Z,16.70
2023-03-02T07:02:16.725Z,13.50
2023-03-02T07:04:43.622Z,13.38
2023-03-02T07:07:10.232Z,16.90
2023-03-02T07:09:37.491Z,15.50
2023-03-02T07:12:04.068Z,17.55
2023-03-02T07:14:31.311Z,13.98
2023-03-02T07:17:00.018Z,15.63
2023-03-02T07:19:27.346Z,17.70
2023-03-02T07:21:53.890Z,17.60
2023-03-02T07:24:22.678Z,17.63
2023-03-02T07:26:49.259Z,17.90
2023-03-02T07:29:16.557Z,17.77
2023-03-02T07:31:44.305Z,17.40
2023-03-02T07:34:11.635Z,19.20
2023-03-02T07:36:38.206Z,18.27
2023-03-02T07:39:05.864Z,15.60
2023-03-02T07:41:32.699Z,19.95
2023-03-02T07:44:00.150Z,22.42
2023-03-02T07:46:26.946Z,18.00
2023-03-02T07:48:54.382Z,18.00
2023-03-02T07:51:20.972Z,19.30
2023-03-02T07:53:48.377Z,21.10
2023-03-02T07:56:14.977Z,19.77
2023-03-02T07:58:42.222Z,23.30
2023-03-02T08:01:09.222Z,22.60
2023-03-02T08:03:37.085Z,23.40
2023-03-02T08:06:12.969Z,18.52
2023-03-02T08:08:40.248Z,24.48
2023-03-02T08:11:13.061Z,18.35
2023-03-02T08:13:42.222Z,19.48
2023-03-02T08:16:10.713Z,18.48
2023-03-02T08:18:38.148Z,25.50
2023-03-02T08:21:11.394Z,20.10
2023-03-02T08:23:38.747Z,21.40
2023-03-02T08:26:05.319Z,23.33
2023-03-02T08:28:32.598Z,19.77
2023-03-02T08:31:00.778Z,19.50
2023-03-02T08:33:31.245Z,26.10
2023-03-02T08:36:02.371Z,18.30
2023-03-02T08:38:30.654Z,18.30
2023-03-02T08:40:57.685Z,22.80
2023-03-02T08:43:26.136Z,26.00
2023-03-02T08:45:54.424Z,26.00
2023-03-02T08:48:22.624Z,18.83
2023-03-02T08:50:58.525Z,20.55
2023-03-02T08:53:26.748Z,16.35
2023-03-02T08:56:22.567Z,17.88
2023-03-02T08:58:50.124Z,21.05
2023-03-02T09:01:19.748Z,20.30
2023-03-02T09:03:47.057Z,16.17
2023-03-02T09:06:14.437Z,18.35
2023-03-02T09:08:42.054Z,19.95
2023-03-02T09:11:08.720Z,14.75
2023-03-02T09:13:36.682Z,18.25
2023-03-02T09:16:04.115Z,21.88
2023-03-02T09:18:32.288Z,21.33
2023-03-02T09:20:58.958Z,22.42
2023-03-02T09:23:27.507Z,20.10
2023-03-02T09:25:55.023Z,22.23
2023-03-02T09:28:22.697Z,20.88
2023-03-02T09:30:53.851Z,22.25
2023-03-02T09:33:21.617Z,20.85
2023-03-02T09:35:48.605Z,18.77
2023-03-02T09:38:17.327Z,17.17
2023-03-02T09:40:52.044Z,20.77
2023-03-02T09:43:31.172Z,19.60
2023-03-02T09:46:30.861Z,24.55
2023-03-02T09:51:46.968Z,19.73
2023-03-02T09:54:21.011Z,23.10
2023-03-02T09:56:52.906Z,19.63
2023-03-02T09:59:45.173Z,19.42
2023-03-02T10:02:24.059Z,19.35
2023-03-02T10:04:54.810Z,20.52
2023-03-02T10:07:38.239Z,22.17
2023-03-02T10:10:37.296Z,20.00
2023-03-02T10:13:21.229Z,21.92
2023-03-02T10:16:10.977Z,24.90
2023-03-02T10:18:43.252Z,20.75
2023-03-02T10:21:23.352Z,20.63
2023-03-02T10:24:15.070Z,21.90
2023-03-02T10:26:44.665Z,21.15
2023-03-02T10:29:44.456Z,20.73
2023-03-02T10:32:27.233Z,23.50
2023-03-02T10:34:54.400Z,22.85
2023-03-02T10:37:25.442Z,22.60
2023-03-02T10:39:52.795Z,24.02
2023-03-02T10:42:26.095Z,25.48
2023-03-02T10:44:56.862Z,25.70
2023-03-02T10:47:29.405Z,22.20
2023-03-02T10:49:58.223Z,23.70
2023-03-02T10:52:27.378Z,21.47
2023-03-02T10:55:06.830Z,23.45
2023-03-02T10:57:44.404Z,26.55
2023-03-02T11:00:23.796Z,22.02
2023-03-02T11:02:53.312Z,21.80
2023-03-02T11:07:57.970Z,22.60
2023-03-02T11:10:31.891Z,23.67
2023-03-02T11:13:00.778Z,25.50
2023-03-02T11:15:27.954Z,24.42
2023-03-02T11:18:15.557Z,30.05
2023-03-02T11:20:46.900Z,21.73
2023-03-02T11:23:26.522Z,21.95
2023-03-02T11:26:13.691Z,23.67
2023-03-02T11:28:49.044Z,24.75
2023-03-02T11:31:26.484Z,22.17
2023-03-02T11:33:53.225Z,24.60
2023-03-02T11:36:36.624Z,22.08
2023-03-02T11:39:09.073Z,29.02
2023-03-02T11:41:36.877Z,25.55
2023-03-02T11:44:15.437Z,22.88
2023-03-02T11:46:47.150Z,26.55
2023-03-02T11:49:19.873Z,29.02
2023-03-02T11:51:58.288Z,23.63
2023-03-02T11:54:38.854Z,27.40
2023-03-02T11:57:06.759Z,27.75
2023-03-02T11:59:34.508Z,24.83
2023-03-02T12:02:02.649Z,26.90
2023-03-02T12:04:32.453Z,25.42
2023-03-02T12:07:02.293Z,25.17
2023-03-02T12:09:37.960Z,22.40
2023-03-02T12:12:26.593Z,21.65
2023-03-02T12:14:53.285Z,22.08
2023-03-02T12:17:20.577Z,24.40
2023-03-02T12:19:48.632Z,20.85
2023-03-02T12:22:27.941Z,22.02
2023-03-02T12:25:23.942Z,21.70
2023-03-02T12:27:53.431Z,21.65
2023-03-02T12:30:24.422Z,26.15
2023-03-02T12:33:21.501Z,20.27
2023-03-02T12:35:50.837Z,20.80
2023-03-02T12:38:29.422Z,23.70
2023-03-02T12:41:18.071Z,20.25
2023-03-02T12:43:55.504Z,23.02
2023-03-02T12:46:34.313Z,22.05
2023-03-02T12:49:17.670Z,20.10
2023-03-02T12:52:11.276Z,22.13
2023-03-02T12:54:38.360Z,24.15
2023-03-02T12:57:20.767Z,20.60
2023-03-02T13:00:29.709Z,24.55
2023-03-02T13:03:21.980Z,27.38
2023-03-02T13:05:48.703Z,25.05
2023-03-02T13:08:18.834Z,23.95
2023-03-02T13:10:53.846Z,23.75
2023-03-02T13:13:25.290Z,26.98
2023-03-02T13:15:58.129Z,22.83
2023-03-02T13:18:28.841Z,23.20
2023-03-02T13:20:56.150Z,22.95
2023-03-02T13:23:23.450Z,21.98
2023-03-02T13:25:51.491Z,23.92
2023-03-02T13:28:28.857Z,24.73
2023-03-02T13:31:01.624Z,31.13
2023-03-02T13:33:31.405Z,25.70
2023-03-02T13:35:58.468Z,27.25
2023-03-02T13:38:36.033Z,25.48
2023-03-02T13:41:03.894Z,27.08
2023-03-02T13:43:34.472Z,25.92
2023-03-02T13:46:04.039Z,18.90
2023-03-02T13:48:31.894Z,20.48
2023-03-02T13:50:58.377Z,20.83
2023-03-02T13:53:27.381Z,20.35
2023-03-02T13:55:54.734Z,18.27
2023-03-02T13:58:24.296Z,21.02
2023-03-02T14:00:52.722Z,21.02
2023-03-02T14:03:29.275Z,23.58
2023-03-02T14:05:58.294Z,21.63
2023-03-02T14:08:25.149Z,22.98
2023-03-02T14:10:57.610Z,23.20
2023-03-02T14:13:29.476Z,25.02
2023-03-02T14:15:56.748Z,26.35
2023-03-02T14:18:39.936Z,25.13
2023-03-02T14:21:13.863Z,26.45
2023-03-02T14:23:41.226Z,22.17
2023-03-02T14:26:20.366Z,31.25
2023-03-02T14:28:51.109Z,25.83
2023-03-02T14:31:24.786Z,28.33
2023-03-02T14:33:51.988Z,29.30
2023-03-02T14:36:29.772Z,32.15
2023-03-02T14:38:58.901Z,27.08
2023-03-02T14:41:27.932Z,28.95
2023-03-02T14:43:54.561Z,33.92
2023-03-02T14:46:21.980Z,33.53
2023-03-02T14:48:48.594Z,31.55
2023-03-02T14:51:22.297Z,33.90
2023-03-02T14:53:50.977Z,32.30
2023-03-02T14:56:20.797Z,35.15
2023-03-02T14:58:47.441Z,35.38
2023-03-02T15:01:14.738Z,31.92
2023-03-02T15:03:41.374Z,32.08
2023-03-02T15:06:36.862Z,33.28
2023-03-02T15:09:03.733Z,33.00
2023-03-02T15:11:31.662Z,28.40
2023-03-02T15:13:59.061Z,28.98
2023-03-02T15:16:26.402Z,30.85
2023-03-02T15:18:53.354Z,32.78
2023-03-02T15:21:23.212Z,31.45
2023-03-02T15:23:50.939Z,29.77
2023-03-02T15:26:18.279Z,32.80
2023-03-02T15:28:45.564Z,27.95
2023-03-02T15:31:15.772Z,29.20
2023-03-02T15:33:45.501Z,28.13
2023-03-02T15:36:14.396Z,34.22
2023-03-02T15:38:41.586Z,38.15
2023-03-02T15:41:12.904Z,35.63
2023-03-02T15:43:39.810Z,29.58
2023-03-02T15:46:09.573Z,33.28
2023-03-02T15:48:36.913Z,32.33
2023-03-02T15:51:07.133Z,31.50
2023-03-02T15:53:37.933Z,35.90
2023-03-02T15:56:16.313Z,32.45
2023-03-02T15:58:47.851Z,32.47
2023-03-02T16:01:16.414Z,34.53
2023-03-02T16:03:45.338Z,38.97
2023-03-02T16:06:13.635Z,35.75
2023-03-02T16:08:40.244Z,35.28
2023-03-02T16:11:08.689Z,36.65
2023-03-02T16:13:35.468Z,34.00
2023-03-02T16:16:04.612Z,33.80
2023-03-02T16:18:31.494Z,35.40
2023-03-02T16:20:59.063Z,35.75
2023-03-02T16:23:25.666Z,36.45
2023-03-02T16:25:52.918Z,36.13
2023-03-02T16:28:19.940Z,34.97
2023-03-02T16:30:47.495Z,40.70
2023-03-02T16:33:17.103Z,40.35
2023-03-02T16:35:45.502Z,40.47
2023-03-02T16:38:12.194Z,40.70
2023-03-02T16:40:40.417Z,37.78
2023-03-02T16:43:10.441Z,35.25
2023-03-02T16:45:37.844Z,38.22
2023-03-02T16:48:05.601Z,38.42
2023-03-02T16:50:32.808Z,38.53
2023-03-02T16:52:59.605Z,37.78
2023-03-02T16:55:27.639Z,39.47
2023-03-02T16:57:54.482Z,35.95
2023-03-02T17:00:23.021Z,41.75
2023-03-02T17:02:50.354Z,43.95
2023-03-02T17:05:19.206Z,48.53
2023-03-02T17:07:46.500Z,46.33
2023-03-02T17:10:17.398Z,40.13
2023-03-02T17:12:44.105Z,44.60
2023-03-02T17:15:15.234Z,44.65
2023-03-02T17:17:41.866Z,47.60
2023-03-02T17:20:12.247Z,46.88
2023-03-02T17:22:38.947Z,44.80
2023-03-02T17:25:06.573Z,41.85
2023-03-02T17:27:33.147Z,50.53
2023-03-02T17:30:00.415Z,50.53
2023-03-02T17:32:27.687Z,46.25
2023-03-02T17:34:55.004Z,49.78
2023-03-02T17:37:21.874Z,45.55
2023-03-02T17:39:52.653Z,53.45
2023-03-02T17:42:19.696Z,50.22
2023-03-02T17:44:47.144Z,52.08
2023-03-02T17:47:17.310Z,51.10
2023-03-02T17:49:45.505Z,57.28
2023-03-02T17:52:13.568Z,53.55
2023-03-02T17:54:41.017Z,51.13
2023-03-02T17:57:08.369Z,51.13
2023-03-02T17:59:36.126Z,51.05
2023-03-02T18:02:03.027Z,66.45
2023-03-02T18:04:29.898Z,70.75
2023-03-02T18:06:56.596Z,58.50
2023-03-02T18:09:23.804Z,52.13
2023-03-02T18:11:50.375Z,48.63
2023-03-02T18:14:19.891Z,52.65
2023-03-02T18:16:46.897Z,48.20
2023-03-02T18:19:14.227Z,50.65
2023-03-02T18:21:41.761Z,48.15
2023-03-02T18:24:09.857Z,47.85
2023-03-02T18:26:37.067Z,45.90
2023-03-02T18:29:04.737Z,49.45
2023-03-02T18:31:33.880Z,45.58
2023-03-02T18:34:02.142Z,47.60
2023-03-02T18:36:29.205Z,45.45
2023-03-02T18:38:56.453Z,43.30
2023-03-02T18:41:24.344Z,50.28
2023-03-02T18:43:52.553Z,44.65
2023-03-02T18:46:24.744Z,44.30
2023-03-02T18:48:53.279Z,43.80
2023-03-02T18:51:21.498Z,46.40
2023-03-02T18:53:49.707Z,45.17
2023-03-02T18:56:16.699Z,40.53
2023-03-02T18:58:44.790Z,40.05
2023-03-02T19:01:11.870Z,46.88
2023-03-02T19:03:40.258Z,44.10
2023-03-02T19:06:08.058Z,41.50
2023-03-02T19:08:36.129Z,39.70
2023-03-02T19:11:03.569Z,40.03
2023-03-02T19:13:31.425Z,38.30
2023-03-02T19:15:58.099Z,40.67
2023-03-02T19:18:25.832Z,40.13
2023-03-02T19:20:54.357Z,39.90
2023-03-02T19:23:21.588Z,42.90
2023-03-02T19:25:48.304Z,33.88
2023-03-02T19:28:15.630Z,40.15
2023-03-02T19:30:42.671Z,36.75
2023-03-02T19:33:10.125Z,32.25
2023-03-02T19:35:37.658Z,32.03
2023-03-02T19:38:06.318Z,33.33
2023-03-02T19:40:34.339Z,35.83
2023-03-02T19:43:02.345Z,29.80
2023-03-02T19:45:32.339Z,34.50
2023-03-02T19:48:00.259Z,41.72
2023-03-02T19:50:28.514Z,36.95
2023-03-02T19:52:56.604Z,32.38
2023-03-02T19:55:24.298Z,33.17
2023-03-02T19:57:56.746Z,32.05
2023-03-02T20:00:23.824Z,34.95
2023-03-02T20:02:51.064Z,33.80
2023-03-02T20:05:17.974Z,35.90
2023-03-02T20:07:45.439Z,36.30
2023-03-02T20:10:25.959Z,36.60
2023-03-02T20:12:53.219Z,37.05
2023-03-02T20:15:19.804Z,36.20
2023-03-02T20:17:47.139Z,38.90
2023-03-02T20:20:13.961Z,37.40
2023-03-02T20:22:40.798Z,43.75
2023-03-02T20:25:08.665Z,41.15
2023-03-02T20:27:36.371Z,36.47
2023-03-02T20:30:08.362Z,36.65
2023-03-02T20:32:35.798Z,39.33
2023-03-02T20:35:02.746Z,37.33
2023-03-02T20:37:29.966Z,41.40
2023-03-02T20:39:56.604Z,43.42
2023-03-02T20:42:24.113Z,37.70
2023-03-02T20:44:51.809Z,38.22
2023-03-02T20:47:19.727Z,41.17
2023-03-02T20:49:46.455Z,47.35
2023-03-02T20:52:13.724Z,47.33
2023-03-02T20:54:42.728Z,39.20
2023-03-02T20:57:15.546Z,50.85
2023-03-02T20:59:44.938Z,45.88
2023-03-02T21:04:42.666Z,44.40
2023-03-02T21:07:10.504Z,52.75
2023-03-02T21:09:37.778Z,46.85
2023-03-02T21:12:05.740Z,49.65
2023-03-02T21:14:33.265Z,46.85
2023-03-02T21:17:01.534Z,46.17
2023-03-02T21:19:32.542Z,45.15
2023-03-02T21:22:00.118Z,46.47
2023-03-02T21:24:26.693Z,44.42
2023-03-02T21:26:55.027Z,45.92
2023-03-02T21:29:24.126Z,48.35
